Time;durP1;ratioP1;P1;durP2;ratioP2;P2;SDS_P1;SDS_P2;PMS_P1;PMS_P2;Temp;Humidity;BMP_temperature;BMP_pressure;BME280_temperature;BME280_humidity;BME280_pressure;Samples;Min_cycle;Max_cycle;Signal;HPM_P1;HPM_P2
2023/08/07 00:00:09;;;;;;;11.63;2.72;;;;;;;12.24;100.00;101213.56;4847812;29;20033;-93
2023/08/07 00:02:43;;;;;;;10.15;2.65;;;;;;;12.26;100.00;101207.91;4862523;29;20095;-93
2023/08/07 00:05:16;;;;;;;10.25;2.03;;;;;;;12.27;100.00;101204.97;4862965;29;20057;-93
2023/08/07 00:07:49;;;;;;;10.85;2.22;;;;;;;12.28;100.00;101211.22;4847526;29;20030;-93
2023/08/07 00:10:24;;;;;;;9.85;2.50;;;;;;;12.27;100.00;101198.69;4862666;29;20241;-94
2023/08/07 00:12:57;;;;;;;9.77;2.10;;;;;;;12.33;100.00;101200.53;4843858;29;20544;-93
2023/08/07 00:15:22;;;;;;;16.27;2.58;;;;;;;12.37;100.00;101199.06;4814202;29;20042;-93
2023/08/07 00:17:57;;;;;;;12.33;2.47;;;;;;;12.37;100.00;101204.50;4828329;29;20044;-93
2023/08/07 00:20:46;;;;;;;11.25;2.10;;;;;;;12.36;100.00;101202.00;4829191;29;20054;-93
2023/08/07 00:23:30;;;;;;;8.65;2.17;;;;;;;12.39;100.00;101207.00;4844527;29;20030;-94
2023/08/07 00:25:59;;;;;;;12.02;1.90;;;;;;;12.41;100.00;101213.06;4828820;29;20030;-93
2023/08/07 00:28:29;;;;;;;10.85;2.08;;;;;;;12.40;100.00;101220.38;4828544;29;20038;-94
2023/08/07 00:31:18;;;;;;;13.60;2.17;;;;;;;12.37;100.00;101228.13;4812691;29;20037;-91
2023/08/07 00:33:43;;;;;;;11.45;2.50;;;;;;;12.29;100.00;101238.22;4830777;29;20038;-93
2023/08/07 00:36:17;;;;;;;11.43;2.15;;;;;;;12.25;100.00;101233.44;4827906;29;20053;-94
2023/08/07 00:38:50;;;;;;;9.67;2.03;;;;;;;12.14;100.00;101229.53;4849362;29;20386;-94
2023/08/07 00:41:24;;;;;;;11.38;2.38;;;;;;;12.00;100.00;101217.88;4864468;29;20043;-93
2023/08/07 00:43:58;;;;;;;9.40;2.30;;;;;;;11.90;100.00;101214.75;4880752;29;20382;-93
2023/08/07 00:46:30;;;;;;;8.10;2.00;;;;;;;11.83;100.00;101217.47;4866062;29;20458;-94
2023/08/07 00:48:59;;;;;;;7.72;1.55;;;;;;;11.82;100.00;101223.97;4864950;29;20414;-93
2023/08/07 00:51:35;;;;;;;;;;;;;;;;;;;;;
2023/08/07 00:54:22;;;;;;;8.30;1.85;;;;;;;11.80;100.00;101242.38;4881466;29;20033;-94
2023/08/07 00:56:48;;;;;;;7.85;2.00;;;;;;;11.80;100.00;101239.66;4865014;29;20037;-94
2023/08/07 00:59:18;;;;;;;8.95;2.22;;;;;;;11.74;100.00;101249.50;4864716;29;20061;-94
2023/08/07 01:01:50;;;;;;;9.43;2.13;;;;;;;11.71;100.00;101235.50;4879651;29;20096;-94
2023/08/07 01:04:34;;;;;;;9.43;2.42;;;;;;;11.64;100.00;101227.38;4864618;29;20477;-93
2023/08/07 01:07:10;;;;;;;17.52;3.00;;;;;;;11.64;100.00;101218.38;4864707;29;20389;-93
2023/08/07 01:09:39;;;;;;;10.45;2.10;;;;;;;11.59;100.00;101219.84;4880871;29;20032;-93
2023/08/07 01:12:21;;;;;;;10.75;2.30;;;;;;;11.61;100.00;101225.06;4864317;29;20033;-93
2023/08/07 01:14:54;;;;;;;8.63;2.37;;;;;;;11.59;100.00;101227.19;4864744;29;20037;-93
2023/08/07 01:17:38;;;;;;;;;;;;;;;;;;;;;
2023/08/07 01:20:13;;;;;;;9.63;2.08;;;;;;;11.56;100.00;101223.00;4866697;29;20041;-93
2023/08/07 01:22:41;;;;;;;13.15;2.65;;;;;;;11.63;100.00;101241.16;4880050;29;20029;-94
2023/08/07 01:25:12;;;;;;;13.40;2.50;;;;;;;11.57;100.00;101241.00;4864534;29;20056;-93
2023/08/07 01:28:07;;;;;;;12.17;2.30;;;;;;;11.62;100.00;101236.78;4863911;29;20037;-93
2023/08/07 01:30:58;;;;;;;11.90;2.50;;;;;;;11.64;100.00;101240.13;4852435;29;20500;-93
2023/08/07 01:34:04;;;;;;;16.33;2.70;;;;;;;11.70;100.00;101252.88;4879468;29;20454;-93
2023/08/07 01:36:32;;;;;;;11.15;2.20;;;;;;;11.73;100.00;101263.31;4862856;29;20045;-93
2023/08/07 01:45:07;;;;;;;14.20;2.10;;;;;;;11.70;100.00;101250.97;4863477;29;20049;-93
2023/08/07 01:47:38;;;;;;;10.52;1.90;;;;;;;11.80;100.00;101260.59;4847803;29;20037;-93
2023/08/07 01:50:09;;;;;;;13.10;2.70;;;;;;;11.85;100.00;101280.63;4845766;29;20041;-94
2023/08/07 01:52:37;;;;;;;14.15;2.28;;;;;;;11.75;100.00;101262.06;4846304;29;20037;-93
2023/08/07 01:55:06;;;;;;;9.03;2.17;;;;;;;11.70;100.00;101245.53;4845219;29;20042;-93
2023/08/07 01:57:40;;;;;;;12.82;2.55;;;;;;;11.76;100.00;101263.69;4845957;29;20045;-93
2023/08/07 02:00:18;;;;;;;;;;;;;;;;;;;;;
2023/08/07 02:03:00;;;;;;;9.63;2.13;;;;;;;11.67;100.00;101264.16;4861464;29;20022;-93
2023/08/07 02:05:31;;;;;;;9.50;2.30;;;;;;;11.70;100.00;101264.56;4845419;29;20030;-93
2023/08/07 02:08:05;;;;;;;10.57;2.37;;;;;;;11.69;100.00;101245.75;4845211;29;20061;-92
2023/08/07 02:10:40;;;;;;;10.88;2.35;;;;;;;11.70;100.00;101256.41;4845724;29;20029;-93
2023/08/07 02:13:13;;;;;;;12.55;2.50;;;;;;;11.70;100.00;101261.84;4861846;29;20030;-93
2023/08/07 02:15:38;;;;;;;9.57;2.20;;;;;;;11.75;100.00;101266.63;4830266;29;20156;-93
2023/08/07 02:18:07;;;;;;;8.90;1.87;;;;;;;11.80;100.00;101271.47;4845096;29;20487;-93
2023/08/07 02:20:45;;;;;;;;;;;;;;;;;;;;;
2023/08/07 02:23:12;;;;;;;7.57;1.90;;;;;;;11.76;100.00;101271.03;4861315;29;20474;-93
2023/08/07 02:25:40;;;;;;;9.57;1.75;;;;;;;11.81;100.00;101284.84;4845135;29;20116;-93
2023/08/07 02:28:11;;;;;;;10.73;2.30;;;;;;;11.81;100.00;101273.09;4844773;29;20486;-92
2023/08/07 02:30:37;;;;;;;8.33;2.13;;;;;;;11.79;100.00;101267.06;4845140;29;20036;-93
2023/08/07 02:33:10;;;;;;;20.95;3.85;;;;;;;11.84;100.00;101261.81;4844591;29;20033;-93
2023/08/07 02:35:52;;;;;;;10.32;2.40;;;;;;;11.80;100.00;101252.44;4845034;29;20033;-93
2023/08/07 02:38:28;;;;;;;13.97;3.10;;;;;;;11.73;100.00;101253.25;4845105;29;20030;-93
2023/08/07 02:41:05;;;;;;;10.98;2.60;;;;;;;11.72;100.00;101254.34;4830067;29;20109;-93
2023/08/07 02:43:56;;;;;;;14.55;2.40;;;;;;;11.80;100.00;101269.56;4827416;29;20030;-93
2023/08/07 02:46:21;;;;;;;12.98;2.70;;;;;;;11.75;100.00;101255.75;4839323;29;20041;-93
2023/08/07 02:48:53;;;;;;;11.87;2.93;;;;;;;11.77;100.00;101259.94;4845125;29;20033;-92
2023/08/07 02:51:22;;;;;;;12.10;2.40;;;;;;;11.79;100.00;101253.47;4845026;29;20105;-93
2023/08/07 02:54:01;;;;;;;7.97;2.35;;;;;;;11.81;100.00;101254.94;4844880;29;20475;-93
2023/08/07 02:56:35;;;;;;;13.70;2.70;;;;;;;11.80;100.00;101255.97;4845164;29;20034;-93
2023/08/07 02:59:05;;;;;;;8.05;2.25;;;;;;;11.81;100.00;101256.78;4845502;29;20371;-93
2023/08/07 03:01:42;;;;;;;8.98;2.58;;;;;;;11.81;100.00;101248.63;4833090;29;20042;-93
2023/08/07 03:04:18;;;;;;;9.57;2.25;;;;;;;11.81;100.00;101249.50;4848555;29;20037;-93
2023/08/07 03:06:46;;;;;;;15.20;2.72;;;;;;;11.83;100.00;101260.16;4833928;29;20044;-92
2023/08/07 03:09:15;;;;;;;9.38;2.10;;;;;;;11.84;100.00;101261.81;4847992;29;20037;-93
2023/08/07 03:11:50;;;;;;;7.03;1.95;;;;;;;11.84;100.00;101262.66;4847824;29;20052;-93
2023/08/07 03:14:16;;;;;;;13.15;2.53;;;;;;;11.88;100.00;101268.50;4833692;29;20033;-93
2023/08/07 03:17:06;;;;;;;10.77;2.30;;;;;;;11.93;100.00;101268.72;4848027;29;20081;-93
2023/08/07 03:19:34;;;;;;;9.60;2.60;;;;;;;11.92;100.00;101261.59;4848359;29;20542;-93
2023/08/07 03:22:01;;;;;;;12.70;2.65;;;;;;;11.92;100.00;101270.56;4847503;29;20065;-93
2023/08/07 03:24:29;;;;;;;13.35;2.47;;;;;;;11.92;100.00;101264.31;4847613;29;20029;-93
2023/08/07 03:27:00;;;;;;;13.60;2.55;;;;;;;11.96;100.00;101257.44;4848320;29;20029;-94
2023/08/07 03:29:32;;;;;;;10.75;2.17;;;;;;;12.00;100.00;101255.94;4847818;29;20029;-93
2023/08/07 03:32:07;;;;;;;10.43;2.72;;;;;;;12.00;100.00;101247.78;4847290;29;20033;-93
2023/08/07 03:34:44;;;;;;;10.77;2.60;;;;;;;12.02;100.00;101244.84;4833329;29;20042;-93
2023/08/07 03:37:17;;;;;;;11.50;2.58;;;;;;;12.01;100.00;101243.19;4847652;29;20076;-93
2023/08/07 03:39:47;;;;;;;10.20;2.35;;;;;;;12.02;100.00;101242.97;4853246;29;20139;-93
2023/08/07 03:42:26;;;;;;;7.75;2.30;;;;;;;12.04;100.00;101245.47;4854039;29;20483;-93
2023/08/07 03:44:57;;;;;;;9.68;2.72;;;;;;;12.08;100.00;101246.72;4847714;29;20065;-93
2023/08/07 03:47:39;;;;;;;9.25;2.60;;;;;;;12.16;100.00;101248.34;4832374;29;20037;-94
2023/08/07 03:50:07;;;;;;;7.50;2.17;;;;;;;12.20;100.00;101244.16;4832890;29;20053;-94
2023/08/07 03:52:58;;;;;;;8.10;2.45;;;;;;;12.25;100.00;101238.88;4848280;29;20030;-94
2023/08/07 03:55:28;;;;;;;9.40;2.30;;;;;;;12.32;100.00;101242.41;4849734;29;20037;-94
2023/08/07 03:57:56;;;;;;;11.30;3.17;;;;;;;12.34;100.00;101245.75;4847016;29;20042;-94
2023/08/07 04:00:24;;;;;;;13.45;2.88;;;;;;;12.37;100.00;101237.16;4831752;29;20041;-93
2023/08/07 04:03:22;;;;;;;10.40;2.33;;;;;;;12.45;100.00;101253.22;4846716;29;20129;-94
2023/08/07 04:06:06;;;;;;;11.27;2.60;;;;;;;12.43;100.00;101252.59;4848101;29;20519;-93
2023/08/07 04:08:52;;;;;;;8.45;2.15;;;;;;;12.55;100.00;101258.19;4847009;29;20061;-93
2023/08/07 04:11:27;;;;;;;10.70;2.53;;;;;;;12.54;100.00;101261.13;4847416;29;20040;-93
2023/08/07 04:13:56;;;;;;;11.50;2.55;;;;;;;12.55;100.00;101252.75;4847151;29;20395;-93
2023/08/07 04:16:24;;;;;;;12.68;3.85;;;;;;;12.51;100.00;101258.84;4846702;29;20025;-93
2023/08/07 04:18:51;;;;;;;11.38;2.47;;;;;;;12.42;100.00;101255.53;4846759;29;20564;-92
2023/08/07 04:21:24;;;;;;;8.20;2.30;;;;;;;12.42;100.00;101259.09;4846641;29;20033;-93
2023/08/07 04:23:59;;;;;;;;;;;;;;;;;;;;;
2023/08/07 04:26:27;;;;;;;26.50;2.85;;;;;;;12.41;100.00;101265.56;4863584;29;20025;-93
2023/08/07 04:28:55;;;;;;;12.63;2.45;;;;;;;12.40;100.00;101282.13;4846848;29;20037;-94
2023/08/07 04:31:31;;;;;;;11.35;2.45;;;;;;;12.37;100.00;101272.53;4846285;29;20037;-93
2023/08/07 04:34:13;;;;;;;12.48;2.50;;;;;;;12.30;100.00;101269.00;4847253;29;20032;-93
2023/08/07 04:37:02;;;;;;;14.43;2.60;;;;;;;12.23;100.00;101276.34;4862109;29;20128;-94
2023/08/07 04:39:31;;;;;;;13.57;2.60;;;;;;;12.31;100.00;101267.09;4832751;29;20037;-94
2023/08/07 04:42:10;;;;;;;;;;;;;;;;;;;;;
2023/08/07 04:44:56;;;;;;;;;;;;;;;;;;;;;
2023/08/07 04:47:42;;;;;;;8.95;2.35;;;;;;;12.38;100.00;101282.34;4859744;29;20049;-94
2023/08/07 04:50:34;;;;;;;11.35;2.25;;;;;;;12.37;100.00;101269.81;4866405;29;20125;-93
2023/08/07 04:53:04;;;;;;;7.35;2.30;;;;;;;12.39;100.00;101273.13;4856634;29;20037;-94
2023/08/07 04:55:51;;;;;;;;;;;;;;;;;;;;;
2023/08/07 04:58:30;;;;;;;;;;;;;;;;;;;;;
2023/08/07 05:01:21;;;;;;;13.32;2.25;;;;;;;12.54;100.00;101277.47;4882776;29;20360;-93
2023/08/07 05:03:49;;;;;;;8.53;1.90;;;;;;;12.53;100.00;101273.06;4862107;29;20052;-93
2023/08/07 05:06:19;;;;;;;8.30;2.15;;;;;;;12.59;100.00;101283.06;4864824;29;20061;-94
2023/08/07 05:08:55;;;;;;;8.68;1.48;;;;;;;12.57;100.00;101280.56;4849850;29;20037;-93
2023/08/07 05:11:25;;;;;;;11.75;1.80;;;;;;;12.59;100.00;101283.06;4865368;29;20065;-94
2023/08/07 05:13:51;;;;;;;11.55;2.05;;;;;;;12.60;100.00;101293.75;4864630;29;20029;-93
2023/08/07 05:16:32;;;;;;;5.82;1.88;;;;;;;12.54;100.00;101278.28;4865141;29;20100;-94
2023/08/07 05:19:11;;;;;;;;;;;;;;;;;;;;;
2023/08/07 05:21:39;;;;;;;7.00;1.55;;;;;;;12.49;100.00;101289.00;4881181;29;20040;-94
2023/08/07 05:24:20;;;;;;;;;;;;;;;;;;;;;
2023/08/07 05:26:51;;;;;;;11.38;1.92;;;;;;;12.42;100.00;101297.19;4866704;29;20047;-94
2023/08/07 05:29:27;;;;;;;10.50;1.65;;;;;;;12.47;100.00;101285.66;4849233;29;20033;-94
2023/08/07 05:32:00;;;;;;;7.97;1.73;;;;;;;12.43;100.00;101293.44;4864182;29;20025;-94
2023/08/07 05:34:32;;;;;;;7.80;2.00;;;;;;;12.43;100.00;101307.03;4865229;29;20066;-93
2023/08/07 05:37:16;;;;;;;7.22;2.00;;;;;;;12.48;100.00;101333.59;4868660;29;20041;-94
2023/08/07 05:39:44;;;;;;;6.40;1.80;;;;;;;12.46;100.00;101311.22;4885972;29;20063;-94
2023/08/07 05:42:34;;;;;;;10.10;2.30;;;;;;;12.51;100.00;101316.00;4865648;29;20072;-96
2023/08/07 05:45:09;;;;;;;7.32;1.85;;;;;;;12.60;100.00;101329.13;4940612;23;20045;-96
2023/08/07 06:03:51;;;;;;;11.65;2.08;;;;;;;12.78;100.00;101341.19;4718044;23;20374;-95
2023/08/07 06:09:21;;;;;;;9.48;1.83;;;;;;;12.90;100.00;101344.91;5217383;23;20079;-96
2023/08/07 06:11:54;;;;;;;15.88;2.13;;;;;;;12.98;100.00;101352.81;4871489;29;20052;-96
2023/08/07 06:14:25;;;;;;;6.15;1.73;;;;;;;12.99;100.00;101335.41;4870772;29;20029;-96
2023/08/07 06:17:03;;;;;;;;;;;;;;;;;;;;;
2023/08/07 06:19:29;;;;;;;10.70;1.70;;;;;;;13.12;100.00;101336.38;5262708;23;20135;-96
2023/08/07 06:29:45;;;;;;;10.13;1.85;;;;;;;13.57;100.00;101349.03;5501273;23;20085;-96
2023/08/07 06:35:02;;;;;;;9.25;1.90;;;;;;;13.72;100.00;101354.16;3711902;23;20227;-95
2023/08/07 06:37:28;;;;;;;9.57;1.65;;;;;;;13.76;100.00;101358.09;4865642;29;20045;-95
2023/08/07 06:39:58;;;;;;;8.87;1.80;;;;;;;13.80;100.00;101367.50;4867386;29;20528;-95
2023/08/07 06:42:26;;;;;;;13.30;1.80;;;;;;;13.89;100.00;101373.50;4867959;29;20033;-96
2023/08/07 06:44:56;;;;;;;9.20;1.60;;;;;;;13.84;100.00;101368.72;4852446;29;20478;-95
2023/08/07 06:47:32;;;;;;;9.10;1.88;;;;;;;13.92;100.00;101371.19;4868005;29;20039;-95
2023/08/07 06:50:02;;;;;;;8.95;1.90;;;;;;;13.96;100.00;101371.56;4867619;29;20521;-96
2023/08/07 06:52:32;;;;;;;12.57;1.38;;;;;;;14.07;100.00;101383.59;4884083;29;20466;-96
2023/08/07 06:54:57;;;;;;;13.05;1.73;;;;;;;14.13;100.00;101366.31;4867334;29;20075;-96
2023/08/07 07:23:12;;;;;;;12.60;1.65;;;;;;;14.99;100.00;101397.25;4884816;29;20057;-96
2023/08/07 07:25:46;;;;;;;9.95;1.50;;;;;;;15.06;100.00;101395.25;4870627;29;20106;-96
2023/08/07 07:31:10;;;;;;;5.13;1.25;;;;;;;15.07;98.63;101409.75;4981234;23;20095;-94
2023/08/07 07:34:05;;;;;;;;;;;;;;;;;;;;;
2023/08/07 07:44:17;;;;;;;10.25;1.73;;;;;;;15.48;92.34;101426.41;4870592;29;20049;-96
2023/08/07 07:46:56;;;;;;;;;;;;;;;;;;;;;
2023/08/07 07:49:22;;;;;;;6.47;1.35;;;;;;;15.72;93.01;101422.66;4868055;29;20479;-94
2023/08/07 07:51:50;;;;;;;13.70;1.63;;;;;;;15.83;90.32;101434.69;4866599;29;20033;-94
2023/08/07 07:54:16;;;;;;;7.90;1.30;;;;;;;15.78;88.65;101426.34;4867389;29;20044;-96
2023/08/07 07:56:49;;;;;;;11.60;1.67;;;;;;;15.77;89.46;101433.69;4866502;29;20029;-96
2023/08/07 07:59:20;;;;;;;5.57;1.30;;;;;;;15.83;89.28;101437.44;4851070;29;20037;-94
2023/08/07 08:01:48;;;;;;;6.88;1.60;;;;;;;15.79;89.57;101430.75;4866048;29;20032;-94
2023/08/07 08:04:19;;;;;;;9.57;1.77;;;;;;;15.85;90.58;101438.03;4851249;29;20402;-94
2023/08/07 08:07:21;;;;;;;11.68;1.48;;;;;;;15.65;90.40;101448.41;4859633;29;20036;-96
2023/08/07 08:41:29;;;;;;;8.10;1.40;;;;;;;15.90;81.48;101464.66;5922219;23;20501;-96
2023/08/07 08:57:43;;;;;;;10.03;1.63;;;;;;;15.93;79.25;101470.53;5518471;23;20050;-96
2023/08/07 09:03:06;;;;;;;6.00;1.40;;;;;;;16.00;75.03;101467.66;4898449;29;20047;-96
2023/08/07 09:05:47;;;;;;;4.82;1.10;;;;;;;16.01;72.73;101480.28;4884113;29;20489;-96
2023/08/07 09:08:43;;;;;;;3.95;1.23;;;;;;;16.08;73.53;101469.22;4888165;29;20033;-96
2023/08/07 09:23:49;;;;;;;5.78;1.30;;;;;;;16.75;70.54;101479.75;4917397;29;20060;-94
2023/08/07 09:26:23;;;;;;;3.07;1.20;;;;;;;16.83;72.23;101497.75;4884429;29;20036;-94
2023/08/07 09:28:53;;;;;;;7.60;1.52;;;;;;;16.93;69.24;101494.41;4888468;29;20165;-94
2023/08/07 09:31:26;;;;;;;6.88;1.30;;;;;;;17.01;67.71;101502.28;4889267;29;20029;-93
2023/08/07 09:33:52;;;;;;;9.13;1.73;;;;;;;17.13;68.08;101481.13;4889861;29;20040;-96
2023/08/07 09:36:18;;;;;;;6.40;1.43;;;;;;;17.25;66.47;101483.81;4884280;29;20032;-96
2023/08/07 09:38:49;;;;;;;5.65;1.60;;;;;;;17.14;65.45;101488.28;4868752;29;20033;-96
2023/08/07 09:41:31;;;;;;;8.73;1.40;;;;;;;17.05;67.01;101469.72;4884752;29;20040;-96
2023/08/07 09:43:57;;;;;;;5.38;1.52;;;;;;;17.21;67.57;101484.56;4883834;29;20122;-96
2023/08/07 09:46:28;;;;;;;4.60;1.50;;;;;;;17.40;68.45;101482.44;4883064;29;20029;-96
2023/08/07 09:49:08;;;;;;;;;;;;;;;;;;;;;
2023/08/07 09:52:15;;;;;;;;;;;;;;;;;;;;;
2023/08/07 09:54:59;;;;;;;;;;;;;;;;;;;;;
2023/08/07 09:57:25;;;;;;;6.10;1.50;;;;;;;17.43;66.00;101503.91;4901861;29;20092;-96
2023/08/07 09:59:51;;;;;;;4.50;1.47;;;;;;;17.45;63.22;101519.03;4901273;29;20455;-96
2023/08/07 10:02:20;;;;;;;5.30;1.40;;;;;;;17.44;61.29;101524.78;4898911;29;20098;-95
2023/08/07 10:05:08;;;;;;;7.80;1.60;;;;;;;17.48;62.02;101503.97;4899523;29;20064;-96
2023/08/07 10:07:54;;;;;;;4.63;1.40;;;;;;;17.71;62.15;101514.84;4881952;29;20059;-96
2023/08/07 10:10:38;;;;;;;3.07;1.10;;;;;;;17.83;62.28;101512.06;4899676;29;20048;-96
2023/08/07 10:13:07;;;;;;;3.95;1.10;;;;;;;17.98;59.94;101524.38;4885783;29;20394;-96
2023/08/07 10:15:40;;;;;;;3.17;1.13;;;;;;;17.83;58.92;101512.06;4885684;29;20072;-96
2023/08/07 10:18:14;;;;;;;7.28;1.50;;;;;;;17.96;59.75;101524.63;4885638;29;20037;-96
2023/08/07 10:20:44;;;;;;;3.90;1.58;;;;;;;17.98;58.56;101530.72;4870946;29;20123;-96
2023/08/07 10:23:24;;;;;;;9.43;1.80;;;;;;;17.84;57.35;101521.94;4792850;29;2813452;-96
2023/08/07 10:26:08;;;;;;;6.57;1.40;;;;;;;17.88;58.68;101514.88;4887993;29;20040;-96
2023/08/07 10:28:58;;;;;;;6.17;1.13;;;;;;;17.88;56.16;101519.53;4887170;29;20078;-96
2023/08/07 10:31:37;;;;;;;;;;;;;;;;;;;;;
2023/08/07 10:34:16;;;;;;;4.57;1.30;;;;;;;18.15;56.68;101518.91;4908365;29;20124;-96
2023/08/07 10:36:44;;;;;;;4.75;1.70;;;;;;;18.46;55.71;101513.91;4875134;29;20049;-91
2023/08/07 10:39:15;;;;;;;3.78;1.40;;;;;;;18.81;55.93;101516.31;4886861;29;20127;-94
2023/08/07 10:42:08;;;;;;;7.97;1.63;;;;;;;19.06;56.49;101514.97;4885599;29;20096;-87
2023/08/07 10:45:08;;;;;;;3.22;1.50;;;;;;;18.96;55.11;101537.69;4886863;29;20096;-94
2023/08/07 10:47:42;;;;;;;6.80;1.50;;;;;;;18.78;56.04;101555.31;4886627;29;20111;-96
2023/08/07 10:50:33;;;;;;;4.50;1.30;;;;;;;18.69;57.08;101571.41;4886104;29;20033;-94
2023/08/07 10:55:59;;;;;;;3.50;1.50;;;;;;;18.98;55.20;101541.03;4896879;29;20040;-94
2023/08/07 10:58:56;;;;;;;5.25;1.63;;;;;;;19.23;54.62;101536.94;4885604;29;20063;-94
2023/08/07 11:01:37;;;;;;;4.88;1.50;;;;;;;19.47;53.66;101548.47;4887925;29;20040;-94
2023/08/07 11:04:32;;;;;;;4.13;1.40;;;;;;;19.49;52.19;101549.06;4886171;29;20035;-95
2023/08/07 11:07:06;;;;;;;4.28;1.42;;;;;;;19.32;53.02;101537.31;4897653;29;20044;-96
2023/08/07 11:09:33;;;;;;;6.20;1.20;;;;;;;19.57;52.01;101539.50;4885792;29;20044;-95
2023/08/07 11:12:08;;;;;;;5.32;1.50;;;;;;;19.85;50.36;101541.19;4886082;29;20032;-96
2023/08/07 11:14:36;;;;;;;9.00;1.63;;;;;;;20.29;51.20;101542.94;4885918;29;20048;-95
2023/08/07 11:17:12;;;;;;;6.57;1.60;;;;;;;21.06;51.92;101542.59;4882763;29;20032;-95
2023/08/07 11:19:38;;;;;;;6.95;1.67;;;;;;;21.46;47.75;101533.63;4899007;29;20056;-94
2023/08/07 11:22:21;;;;;;;7.43;2.10;;;;;;;21.81;47.02;101539.53;4892449;29;20057;-95
2023/08/07 11:24:56;;;;;;;6.10;1.50;;;;;;;21.67;47.47;101547.50;4854712;29;20041;-95
2023/08/07 11:27:53;;;;;;;;;;;;;;;;;;;;;
2023/08/07 11:30:26;;;;;;;6.78;1.52;;;;;;;23.89;43.50;101533.97;4887765;29;20124;-95
2023/08/07 11:32:56;;;;;;;5.60;1.75;;;;;;;25.80;40.14;101549.28;4856016;29;20041;-95
2023/08/07 11:35:25;;;;;;;8.97;1.80;;;;;;;26.92;37.22;101537.31;4867890;29;20040;-95
2023/08/07 11:37:53;;;;;;;6.35;1.88;;;;;;;27.58;36.39;101525.88;4864616;29;20041;-96
2023/08/07 11:40:30;;;;;;;5.95;1.70;;;;;;;26.37;38.23;101536.13;4857626;29;20036;-95
2023/08/07 11:43:03;;;;;;;6.95;1.67;;;;;;;25.81;39.25;101539.84;4851202;29;20117;-96
2023/08/07 11:45:41;;;;;;;5.20;1.85;;;;;;;27.64;37.06;101549.72;4848176;29;20094;-95
2023/08/07 11:48:33;;;;;;;4.53;1.70;;;;;;;29.57;32.84;101555.09;4838546;29;20113;-96
2023/08/07 11:50:59;;;;;;;6.88;2.10;;;;;;;29.96;31.30;101526.50;4869708;29;20463;-96
2023/08/07 11:53:35;;;;;;;5.30;1.88;;;;;;;30.47;30.23;101533.13;4866468;29;20032;-96
2023/08/07 11:56:14;;;;;;;10.05;2.30;;;;;;;30.67;32.10;101520.38;4867451;29;20039;-96
2023/08/07 12:01:43;;;;;;;7.70;2.03;;;;;;;28.60;30.98;101507.69;4858823;29;20084;-96
2023/08/07 12:04:32;;;;;;;7.75;2.03;;;;;;;26.49;34.77;101520.91;4865898;29;20112;-95
2023/08/07 12:07:10;;;;;;;6.82;1.95;;;;;;;24.78;38.38;101524.53;4849810;29;20033;-96
2023/08/07 12:09:41;;;;;;;6.57;2.22;;;;;;;23.10;40.05;101515.28;4851411;29;20037;-96
2023/08/07 12:15:31;;;;;;;5.90;2.20;;;;;;;21.43;47.10;101530.59;4863934;29;20040;-92
2023/08/07 12:18:12;;;;;;;;;;;;;;;;;;;;;
2023/08/07 12:20:41;;;;;;;8.73;2.10;;;;;;;20.84;54.24;101551.88;4863616;29;20033;-91
2023/08/07 12:23:16;;;;;;;6.60;1.83;;;;;;;23.32;51.25;101528.75;4861714;29;20044;-91
2023/08/07 12:25:44;;;;;;;7.90;2.20;;;;;;;26.41;42.53;101533.53;4866310;29;20029;-92
2023/08/07 12:28:10;;;;;;;8.23;1.97;;;;;;;28.63;38.32;101516.25;4850613;29;20064;-91
2023/08/07 12:30:39;;;;;;;5.38;1.95;;;;;;;30.20;35.00;101520.34;4865901;29;20071;-90
2023/08/07 12:33:09;;;;;;;6.97;2.13;;;;;;;28.15;37.91;101523.38;4865361;29;20040;-91
2023/08/07 12:35:38;;;;;;;6.45;2.20;;;;;;;25.49;41.52;101530.31;4851149;29;20447;-95
2023/08/07 12:38:06;;;;;;;5.37;2.10;;;;;;;23.25;46.48;101536.53;4865345;29;20039;-94
2023/08/07 12:40:36;;;;;;;6.55;2.20;;;;;;;21.75;51.07;101555.25;4865489;29;20085;-93
2023/08/07 12:43:01;;;;;;;9.27;2.35;;;;;;;20.40;60.51;101549.34;4865229;29;20120;-94
2023/08/07 12:45:35;;;;;;;5.43;1.83;;;;;;;19.52;62.56;101543.03;4865441;29;20568;-93
2023/08/07 12:48:04;;;;;;;7.00;2.22;;;;;;;19.03;64.45;101562.25;4866494;29;20496;-93
2023/08/07 12:50:34;;;;;;;6.30;2.20;;;;;;;19.06;65.45;101546.09;4867483;29;20116;-95
2023/08/07 12:53:00;;;;;;;5.63;2.05;;;;;;;19.32;64.15;101540.88;4850870;29;20037;-96
2023/08/07 12:55:27;;;;;;;5.38;2.15;;;;;;;21.17;58.71;101539.63;4866466;29;20029;-93
2023/08/07 12:57:56;;;;;;;4.93;2.03;;;;;;;24.15;49.72;101531.78;4865124;29;20032;-93
2023/08/07 13:00:22;;;;;;;6.35;2.30;;;;;;;23.95;48.00;101547.47;4884127;29;20096;-92
2023/08/07 13:02:49;;;;;;;4.63;1.90;;;;;;;23.25;49.57;101540.16;4872347;29;20061;-93
2023/08/07 13:05:19;;;;;;;8.93;2.30;;;;;;;22.11;52.32;101543.41;4874465;29;20065;-93
2023/08/07 13:07:53;;;;;;;6.30;2.20;;;;;;;21.30;54.69;101559.53;4874897;29;20109;-93
2023/08/07 13:10:39;;;;;;;7.10;2.47;;;;;;;21.62;56.54;101542.00;4872128;29;20390;-93
2023/08/07 13:13:24;;;;;;;8.60;2.60;;;;;;;25.12;49.48;101549.38;4856659;29;20040;-93
2023/08/07 13:15:52;;;;;;;8.63;2.08;;;;;;;28.42;39.61;101545.81;4870297;29;20048;-91
2023/08/07 13:18:25;;;;;;;4.10;2.08;;;;;;;29.39;36.01;101543.09;4883249;29;20037;-95
2023/08/07 13:21:04;;;;;;;5.43;1.73;;;;;;;30.51;34.84;101544.50;4865752;29;20032;-93
2023/08/07 13:23:42;;;;;;;5.73;1.80;;;;;;;30.29;32.39;101523.94;4832288;29;20086;-92
2023/08/07 13:26:10;;;;;;;6.50;1.90;;;;;;;28.17;35.60;101539.81;4846804;29;20372;-92
2023/08/07 13:28:50;;;;;;;5.30;2.03;;;;;;;26.74;39.75;101550.22;4862813;29;20033;-92
2023/08/07 13:31:18;;;;;;;7.20;1.90;;;;;;;25.29;41.32;101542.47;4846566;29;20033;-93
2023/08/07 13:33:43;;;;;;;4.88;1.92;;;;;;;24.39;43.34;101542.09;4846408;29;20038;-94
2023/08/07 13:36:22;;;;;;;;;;;;;;;;;;;;;
2023/08/07 13:38:54;;;;;;;4.88;1.90;;;;;;;24.33;44.68;101538.53;4863398;29;20474;-92
2023/08/07 13:41:37;;;;;;;;;;;;;;;;;;;;;
2023/08/07 13:44:06;;;;;;;3.80;1.63;;;;;;;23.54;45.71;101530.28;4861449;29;20037;-93
2023/08/07 13:46:34;;;;;;;5.20;1.58;;;;;;;22.79;46.97;101537.50;4845959;29;20499;-93
2023/08/07 13:49:12;;;;;;;6.28;1.90;;;;;;;22.23;49.48;101538.41;4863129;29;20112;-92
2023/08/07 13:51:44;;;;;;;3.10;1.65;;;;;;;21.79;50.72;101533.44;4847375;29;20120;-93
2023/08/07 13:54:10;;;;;;;3.83;1.50;;;;;;;21.26;53.37;101542.69;4846732;29;20104;-92
2023/08/07 13:56:38;;;;;;;2.77;1.40;;;;;;;20.93;54.09;101543.91;4846296;29;20090;-93
2023/08/07 13:59:07;;;;;;;4.00;2.30;;;;;;;20.58;56.86;101550.84;4845703;29;20045;-92
2023/08/07 14:01:38;;;;;;;5.00;1.50;;;;;;;20.78;56.33;101559.28;4845703;29;20033;-92
2023/08/07 14:04:08;;;;;;;3.58;1.60;;;;;;;21.06;56.44;101557.22;4845552;29;20043;-92
2023/08/07 14:06:44;;;;;;;;;;;;;;;;;;;;;
2023/08/07 14:09:10;;;;;;;4.47;1.70;;;;;;;20.85;56.07;101559.88;4863024;29;20041;-93
2023/08/07 14:11:38;;;;;;;3.83;1.42;;;;;;;20.50;57.34;101571.47;4845981;29;20057;-93
2023/08/07 14:14:04;;;;;;;4.60;1.73;;;;;;;20.19;59.63;101568.47;4862284;29;20037;-93
2023/08/07 14:16:34;;;;;;;5.25;1.63;;;;;;;20.02;59.19;101567.78;4845972;29;20036;-91
2023/08/07 14:19:10;;;;;;;5.30;2.00;;;;;;;19.84;60.83;101563.47;4847574;29;20037;-92
2023/08/07 14:21:35;;;;;;;4.90;1.67;;;;;;;20.18;60.53;101568.75;4849117;29;20081;-93
2023/08/07 14:24:01;;;;;;;5.38;1.73;;;;;;;22.90;53.79;101564.06;4864777;29;20060;-94
2023/08/07 14:26:39;;;;;;;4.67;1.80;;;;;;;25.92;46.12;101569.94;4867545;29;20093;-93
2023/08/07 14:29:07;;;;;;;3.30;1.50;;;;;;;25.72;43.77;101567.47;4864842;29;20081;-93
2023/08/07 14:31:35;;;;;;;2.90;1.70;;;;;;;24.73;45.24;101566.19;4864219;29;20037;-93
2023/08/07 14:34:04;;;;;;;4.43;1.70;;;;;;;24.30;47.01;101576.03;4864225;29;20089;-92
2023/08/07 14:36:32;;;;;;;3.83;1.90;;;;;;;26.06;44.36;101561.69;4864005;29;20071;-93
2023/08/07 14:38:59;;;;;;;4.03;1.65;;;;;;;26.11;42.18;101563.53;4848527;29;20106;-92
2023/08/07 14:41:27;;;;;;;3.63;1.77;;;;;;;25.65;44.68;101562.28;4864456;29;20041;-93
2023/08/07 14:43:56;;;;;;;2.97;1.70;;;;;;;24.85;45.48;101553.59;4863860;29;20462;-93